createdAt,value
2023-06-10T00:00:53.509Z,94462.00
2023-06-10T00:01:53.523Z,94464.00
2023-06-10T00:02:53.598Z,94462.00
2023-06-10T00:03:53.690Z,94458.00
2023-06-10T00:04:53.534Z,94456.00
2023-06-10T00:05:53.512Z,94456.00
2023-06-10T00:06:53.457Z,94456.00
2023-06-10T00:07:53.451Z,94456.00
2023-06-10T00:08:53.604Z,94458.00
2023-06-10T00:09:53.434Z,94456.00
2023-06-10T00:10:53.482Z,94462.00
2023-06-10T00:11:53.447Z,94462.00
2023-06-10T00:12:53.449Z,94462.00
2023-06-10T00:13:53.393Z,94466.00
2023-06-10T00:14:53.410Z,94468.00
2023-06-10T00:15:53.443Z,94468.00
2023-06-10T00:16:53.419Z,94466.00
2023-06-10T00:17:53.465Z,94472.00
2023-06-10T00:18:53.347Z,94470.00
2023-06-10T00:19:53.399Z,94472.00
2023-06-10T00:20:53.384Z,94470.00
2023-06-10T00:21:53.346Z,94472.00
2023-06-10T00:22:53.369Z,94472.00
2023-06-10T00:23:54.144Z,94472.00
2023-06-10T00:24:53.364Z,94474.00
2023-06-10T00:25:53.330Z,94478.00
2023-06-10T00:26:53.325Z,94476.00
2023-06-10T00:27:53.336Z,94476.00
2023-06-10T00:28:53.294Z,94478.00
2023-06-10T00:29:53.298Z,94478.00
2023-06-10T00:30:53.347Z,94478.00
2023-06-10T00:31:53.305Z,94480.00
2023-06-10T00:32:53.349Z,94482.00
2023-06-10T00:33:53.261Z,94476.00
2023-06-10T00:34:53.276Z,94476.00
2023-06-10T00:35:53.417Z,94474.00
2023-06-10T00:36:53.258Z,94474.00
2023-06-10T00:37:53.267Z,94474.00
2023-06-10T00:38:53.270Z,94472.00
2023-06-10T00:39:53.219Z,94474.00
2023-06-10T00:40:53.230Z,94476.00
2023-06-10T00:41:53.216Z,94478.00
2023-06-10T00:42:53.214Z,94480.00
2023-06-10T00:43:53.232Z,94476.00
2023-06-10T00:44:53.215Z,94476.00
2023-06-10T00:45:53.320Z,94478.00
2023-06-10T00:46:53.204Z,94482.00
2023-06-10T00:47:53.210Z,94476.00
2023-06-10T00:48:53.187Z,94478.00
2023-06-10T00:49:53.166Z,94476.00
2023-06-10T00:50:53.177Z,94478.00
2023-06-10T00:51:53.132Z,94478.00
2023-06-10T00:52:55.678Z,94480.00
2023-06-10T00:53:53.403Z,94476.00
2023-06-10T00:54:53.381Z,94476.00
2023-06-10T00:55:53.445Z,94476.00
2023-06-10T00:56:53.376Z,94474.00
2023-06-10T00:57:53.382Z,94474.00
2023-06-10T00:58:53.397Z,94472.00
2023-06-10T00:59:53.404Z,94472.00
2023-06-10T01:00:53.418Z,94468.00
2023-06-10T01:01:53.451Z,94472.00
2023-06-10T01:02:53.619Z,94472.00
2023-06-10T01:03:53.432Z,94470.00
2023-06-10T01:04:53.493Z,94470.00
2023-06-10T01:05:53.405Z,94470.00
2023-06-10T01:06:53.425Z,94468.00
2023-06-10T01:07:53.385Z,94470.00
2023-06-10T01:08:53.466Z,94470.00
2023-06-10T01:09:53.394Z,94472.00
2023-06-10T01:10:53.425Z,94474.00
2023-06-10T01:11:53.411Z,94472.00
2023-06-10T01:12:53.423Z,94474.00
2023-06-10T01:13:53.449Z,94474.00
2023-06-10T01:14:53.423Z,94478.00
2023-06-10T01:15:53.446Z,94478.00
2023-06-10T01:16:53.482Z,94480.00
2023-06-10T01:17:53.511Z,94480.00
2023-06-10T01:18:53.600Z,94482.00
2023-06-10T01:19:53.518Z,94482.00
2023-06-10T01:20:53.480Z,94478.00
2023-06-10T01:21:53.498Z,94478.00
2023-06-10T01:22:53.515Z,94478.00
2023-06-10T01:23:53.537Z,94480.00
2023-06-10T01:24:53.543Z,94482.00
2023-06-10T01:25:53.510Z,94476.00
2023-06-10T01:26:53.559Z,94478.00
2023-06-10T01:27:53.569Z,94476.00
2023-06-10T01:28:53.547Z,94476.00
2023-06-10T01:29:53.580Z,94474.00
2023-06-10T01:30:53.654Z,94474.00
2023-06-10T01:31:53.633Z,94476.00
2023-06-10T01:32:53.689Z,94476.00
2023-06-10T01:33:53.649Z,94474.00
2023-06-10T01:34:53.635Z,94474.00
2023-06-10T01:35:53.676Z,94476.00
2023-06-10T01:36:53.657Z,94474.00
2023-06-10T01:37:53.669Z,94476.00
2023-06-10T01:38:53.694Z,94478.00
2023-06-10T01:39:53.670Z,94476.00
2023-06-10T01:40:53.706Z,94478.00
2023-06-10T01:41:53.733Z,94478.00
2023-06-10T01:42:53.766Z,94480.00
2023-06-10T01:43:53.757Z,94480.00
2023-06-10T01:44:53.786Z,94478.00
2023-06-10T01:45:53.811Z,94476.00
2023-06-10T01:46:53.848Z,94478.00
2023-06-10T01:47:53.941Z,94478.00
2023-06-10T01:48:53.852Z,94476.00
2023-06-10T01:49:53.868Z,94476.00
2023-06-10T01:50:53.855Z,94478.00
2023-06-10T01:51:53.997Z,94478.00
2023-06-10T01:52:53.907Z,94478.00
2023-06-10T01:53:53.931Z,94480.00
2023-06-10T01:54:53.996Z,94480.00
2023-06-10T01:55:53.940Z,94480.00
2023-06-10T01:56:53.994Z,94480.00
2023-06-10T01:57:53.973Z,94478.00
2023-06-10T01:58:54.013Z,94478.00
2023-06-10T01:59:54.081Z,94476.00
2023-06-10T02:00:54.211Z,94476.00
2023-06-10T02:01:54.093Z,94480.00
2023-06-10T02:02:54.127Z,94480.00
2023-06-10T02:03:54.144Z,94478.00
2023-06-10T02:04:54.217Z,94478.00
2023-06-10T02:05:54.102Z,94478.00
2023-06-10T02:06:54.169Z,94480.00
2023-06-10T02:07:54.212Z,94480.00
2023-06-10T02:08:54.180Z,94482.00
2023-06-10T02:09:54.247Z,94483.00
2023-06-10T02:10:54.244Z,94480.00
2023-06-10T02:11:54.256Z,94483.00
2023-06-10T02:12:54.320Z,94485.00
2023-06-10T02:13:54.321Z,94485.00
2023-06-10T02:14:54.375Z,94487.00
2023-06-10T02:15:54.368Z,94487.00
2023-06-10T02:16:54.474Z,94487.00
2023-06-10T02:17:54.427Z,94487.00
2023-06-10T02:18:54.386Z,94487.00
2023-06-10T02:19:54.417Z,94483.00
2023-06-10T02:20:54.571Z,94487.00
2023-06-10T02:21:54.486Z,94485.00
2023-06-10T02:22:54.516Z,94482.00
2023-06-10T02:23:54.666Z,94483.00
2023-06-10T02:24:54.544Z,94487.00
2023-06-10T02:25:54.558Z,94489.00
2023-06-10T02:26:54.545Z,94489.00
2023-06-10T02:27:54.643Z,94491.00
2023-06-10T02:28:54.637Z,94491.00
2023-06-10T02:29:54.644Z,94493.00
2023-06-10T02:30:54.682Z,94493.00
2023-06-10T02:31:54.704Z,94495.00
2023-06-10T02:32:54.784Z,94491.00
2023-06-10T02:33:54.788Z,94495.00
2023-06-10T02:34:54.771Z,94493.00
2023-06-10T02:35:54.821Z,94493.00
2023-06-10T02:36:55.192Z,94495.00
2023-06-10T02:37:55.202Z,94495.00
2023-06-10T02:38:54.845Z,94499.00
2023-06-10T02:39:54.851Z,94495.00
2023-06-10T02:40:54.864Z,94497.00
2023-06-10T02:41:54.931Z,94499.00
2023-06-10T02:42:54.930Z,94497.00
2023-06-10T02:43:54.937Z,94497.00
2023-06-10T02:44:54.930Z,94499.00
2023-06-10T02:45:55.098Z,94497.00
2023-06-10T02:46:55.000Z,94501.00
2023-06-10T02:47:55.098Z,94499.00
2023-06-10T02:48:55.077Z,94501.00
2023-06-10T02:49:55.043Z,94499.00
2023-06-10T02:50:55.105Z,94499.00
2023-06-10T02:51:55.137Z,94505.00
2023-06-10T02:52:55.201Z,94503.00
2023-06-10T02:53:55.150Z,94505.00
2023-06-10T02:54:55.290Z,94505.00
2023-06-10T02:55:55.233Z,94503.00
2023-06-10T02:56:55.240Z,94505.00
2023-06-10T02:57:55.328Z,94505.00
2023-06-10T02:58:55.263Z,94503.00
2023-06-10T02:59:55.302Z,94505.00
2023-06-10T03:00:55.363Z,94505.00
2023-06-10T03:01:55.471Z,94503.00
2023-06-10T03:02:55.461Z,94503.00
2023-06-10T03:03:55.498Z,94499.00
2023-06-10T03:04:55.491Z,94499.00
2023-06-10T03:05:55.495Z,94499.00
2023-06-10T03:06:55.551Z,94499.00
2023-06-10T03:07:55.627Z,94499.00
2023-06-10T03:08:55.627Z,94499.00
2023-06-10T03:09:55.653Z,94499.00
2023-06-10T03:10:55.665Z,94501.00
2023-06-10T03:11:55.709Z,94503.00
2023-06-10T03:12:55.726Z,94503.00
2023-06-10T03:13:55.769Z,94505.00
2023-06-10T03:14:55.806Z,94505.00
2023-06-10T03:15:55.862Z,94507.00
2023-06-10T03:16:55.838Z,94507.00
2023-06-10T03:17:55.909Z,94507.00
2023-06-10T03:18:56.007Z,94509.00
2023-06-10T03:19:55.954Z,94513.00
2023-06-10T03:20:56.030Z,94513.00
2023-06-10T03:21:56.085Z,94517.00
2023-06-10T03:22:56.062Z,94517.00
2023-06-10T03:23:56.183Z,94517.00
2023-06-10T03:24:56.132Z,94519.00
2023-06-10T03:25:56.162Z,94517.00
2023-06-10T03:26:56.182Z,94517.00
2023-06-10T03:27:56.262Z,94517.00
2023-06-10T03:28:56.271Z,94519.00
2023-06-10T03:29:56.296Z,94519.00
2023-06-10T03:30:56.346Z,94515.00
2023-06-10T03:31:56.390Z,94515.00
2023-06-10T03:32:56.466Z,94517.00
2023-06-10T03:33:56.459Z,94517.00
2023-06-10T03:34:56.452Z,94519.00
2023-06-10T03:35:56.497Z,94521.00
2023-06-10T03:36:56.579Z,94515.00
2023-06-10T03:37:56.589Z,94523.00
2023-06-10T03:38:56.570Z,94517.00
2023-06-10T03:39:56.665Z,94515.00
2023-06-10T03:40:56.662Z,94521.00
2023-06-10T03:41:56.774Z,94521.00
2023-06-10T03:42:56.744Z,94515.00
2023-06-10T03:43:56.786Z,94517.00
2023-06-10T03:44:56.784Z,94515.00
2023-06-10T03:45:56.919Z,94515.00
2023-06-10T03:46:56.861Z,94515.00
2023-06-10T03:47:57.023Z,94517.00
2023-06-10T03:48:56.928Z,94519.00
2023-06-10T03:49:56.989Z,94521.00
2023-06-10T03:50:57.044Z,94519.00
2023-06-10T03:51:57.037Z,94523.00
2023-06-10T03:52:57.236Z,94523.00
2023-06-10T03:53:57.436Z,94521.00
2023-06-10T03:54:57.277Z,94523.00
2023-06-10T03:55:57.071Z,94523.00
2023-06-10T03:56:57.099Z,94523.00
2023-06-10T03:57:57.133Z,94523.00
2023-06-10T03:58:57.168Z,94533.00
2023-06-10T03:59:57.155Z,94525.00
2023-06-10T04:00:57.210Z,94525.00
2023-06-10T04:01:57.318Z,94533.00
2023-06-10T04:02:57.342Z,94531.00
2023-06-10T04:03:57.290Z,94533.00
2023-06-10T04:04:57.347Z,94525.00
2023-06-10T04:05:57.396Z,94525.00
2023-06-10T04:06:57.466Z,94525.00
2023-06-10T04:07:57.457Z,94525.00
2023-06-10T04:08:57.522Z,94533.00
2023-06-10T04:09:57.515Z,94529.00
2023-06-10T04:10:57.609Z,94529.00
2023-06-10T04:11:57.597Z,94529.00
2023-06-10T04:12:57.667Z,94529.00
2023-06-10T04:13:57.651Z,94529.00
2023-06-10T04:14:57.720Z,94533.00
2023-06-10T04:15:57.768Z,94535.00
2023-06-10T04:16:57.810Z,94535.00
2023-06-10T04:17:57.905Z,94537.00
2023-06-10T04:18:57.883Z,94540.00
2023-06-10T04:19:57.891Z,94544.00
2023-06-10T04:20:57.920Z,94544.00
2023-06-10T04:21:57.975Z,94537.00
2023-06-10T04:22:58.019Z,94537.00
2023-06-10T04:23:58.087Z,94537.00
2023-06-10T04:24:58.082Z,94535.00
2023-06-10T04:25:58.146Z,94537.00
2023-06-10T04:26:58.194Z,94535.00
2023-06-10T04:27:58.205Z,94537.00
2023-06-10T04:28:58.263Z,94537.00
2023-06-10T04:29:58.336Z,94538.00
2023-06-10T04:30:58.335Z,94540.00
2023-06-10T04:31:58.398Z,94538.00
2023-06-10T04:32:58.490Z,94538.00
2023-06-10T04:33:58.474Z,94538.00
2023-06-10T04:34:58.503Z,94538.00
2023-06-10T04:35:58.532Z,94540.00
2023-06-10T04:36:58.572Z,94537.00
2023-06-10T04:37:58.625Z,94542.00
2023-06-10T04:38:58.670Z,94542.00
2023-06-10T04:39:58.700Z,94542.00
2023-06-10T04:40:58.752Z,94540.00
2023-06-10T04:41:58.778Z,94538.00
2023-06-10T04:42:58.884Z,94538.00
2023-06-10T04:43:58.882Z,94540.00
2023-06-10T04:44:58.883Z,94540.00
2023-06-10T04:45:58.961Z,94538.00
2023-06-10T04:46:59.031Z,94540.00
2023-06-10T04:47:59.159Z,94538.00
2023-06-10T04:48:59.044Z,94540.00
2023-06-10T04:49:59.118Z,94538.00
2023-06-10T04:50:59.196Z,94546.00
2023-06-10T04:51:59.237Z,94548.00
2023-06-10T04:52:59.214Z,94546.00
2023-06-10T04:53:59.273Z,94546.00
2023-06-10T04:54:59.329Z,94550.00
2023-06-10T04:55:59.346Z,94550.00
2023-06-10T04:56:59.391Z,94552.00
2023-06-10T04:57:59.441Z,94552.00
2023-06-10T04:58:59.457Z,94550.00
2023-06-10T04:59:59.518Z,94550.00
2023-06-10T05:00:59.522Z,94550.00
2023-06-10T05:01:59.632Z,94550.00
2023-06-10T05:02:59.664Z,94548.00
2023-06-10T05:03:59.649Z,94552.00
2023-06-10T05:04:59.706Z,94550.00
2023-06-10T05:05:59.750Z,94550.00
2023-06-10T05:06:59.814Z,94550.00
2023-06-10T05:07:59.833Z,94550.00
2023-06-10T05:08:59.876Z,94550.00
2023-06-10T05:09:59.879Z,94550.00
2023-06-10T05:10:59.883Z,94548.00
2023-06-10T05:11:59.955Z,94550.00
2023-06-10T05:13:00.002Z,94550.00
2023-06-10T05:14:00.084Z,94550.00
2023-06-10T05:15:00.088Z,94550.00
2023-06-10T05:16:00.115Z,94550.00
2023-06-10T05:17:00.177Z,94550.00
2023-06-10T05:18:00.201Z,94550.00
2023-06-10T05:19:00.210Z,94550.00
2023-06-10T05:20:00.277Z,94552.00
2023-06-10T05:21:00.260Z,94550.00
2023-06-10T05:22:00.273Z,94550.00
2023-06-10T05:23:00.330Z,94550.00
2023-06-10T05:24:00.412Z,94548.00
2023-06-10T05:25:00.448Z,94546.00
2023-06-10T05:26:00.435Z,94546.00
2023-06-10T05:27:00.489Z,94544.00
2023-06-10T05:28:00.523Z,94546.00
2023-06-10T05:29:00.594Z,94546.00
2023-06-10T05:30:00.589Z,94544.00
2023-06-10T05:31:00.641Z,94544.00
2023-06-10T05:32:00.747Z,94546.00
2023-06-10T05:33:00.737Z,94542.00
2023-06-10T05:34:00.729Z,94542.00
2023-06-10T05:35:00.781Z,94542.00
2023-06-10T05:36:00.794Z,94540.00
2023-06-10T05:37:00.794Z,94540.00
2023-06-10T05:38:03.517Z,94540.00
2023-06-10T05:39:00.857Z,94537.00
2023-06-10T05:40:00.877Z,94538.00
2023-06-10T05:41:00.804Z,94537.00
2023-06-10T05:42:00.826Z,94537.00
2023-06-10T05:43:00.883Z,94537.00
2023-06-10T05:44:00.835Z,94538.00
2023-06-10T05:45:00.780Z,94535.00
2023-06-10T05:46:00.810Z,94538.00
2023-06-10T05:47:00.791Z,94535.00
2023-06-10T05:48:00.820Z,94535.00
2023-06-10T05:49:00.817Z,94535.00
2023-06-10T05:50:00.785Z,94535.00
2023-06-10T05:51:00.768Z,94533.00
2023-06-10T05:52:00.757Z,94531.00
2023-06-10T05:53:00.756Z,94531.00
2023-06-10T05:54:00.774Z,94529.00
2023-06-10T05:55:00.738Z,94529.00
2023-06-10T05:56:00.786Z,94529.00
2023-06-10T05:57:00.720Z,94529.00
2023-06-10T05:58:00.741Z,94527.00
2023-06-10T05:59:00.713Z,94531.00
2023-06-10T06:00:00.707Z,94529.00
2023-06-10T06:01:00.717Z,94529.00
2023-06-10T06:02:00.788Z,94527.00
2023-06-10T06:03:00.812Z,94531.00
2023-06-10T06:04:00.698Z,94529.00
2023-06-10T06:05:00.736Z,94529.00
2023-06-10T06:06:00.666Z,94527.00
2023-06-10T06:07:00.682Z,94527.00
2023-06-10T06:08:00.640Z,94527.00
2023-06-10T06:09:00.660Z,94525.00
2023-06-10T06:10:00.601Z,94525.00
2023-06-10T06:11:00.635Z,94525.00
2023-06-10T06:12:00.776Z,94521.00
2023-06-10T06:13:00.614Z,94523.00
2023-06-10T06:14:00.591Z,94521.00
2023-06-10T06:15:00.575Z,94519.00
2023-06-10T06:16:00.597Z,94519.00
2023-06-10T06:17:00.613Z,94517.00
2023-06-10T06:18:00.615Z,94519.00
2023-06-10T06:19:00.579Z,94519.00
2023-06-10T06:20:00.553Z,94519.00
2023-06-10T06:21:00.552Z,94519.00
2023-06-10T06:22:00.582Z,94515.00
2023-06-10T06:23:00.559Z,94517.00
2023-06-10T06:24:00.734Z,94515.00
2023-06-10T06:25:00.706Z,94515.00
2023-06-10T06:26:00.531Z,94513.00
2023-06-10T06:27:00.526Z,94511.00
2023-06-10T06:28:00.518Z,94511.00
2023-06-10T06:29:00.524Z,94511.00
2023-06-10T06:30:00.499Z,94509.00
2023-06-10T06:31:00.585Z,94513.00
2023-06-10T06:32:00.578Z,94511.00
2023-06-10T06:33:00.561Z,94511.00
2023-06-10T06:34:00.488Z,94511.00
2023-06-10T06:35:00.463Z,94509.00
2023-06-10T06:36:00.447Z,94509.00
2023-06-10T06:37:00.468Z,94509.00
2023-06-10T06:38:00.430Z,94511.00
2023-06-10T06:39:00.484Z,94511.00
2023-06-10T06:40:03.968Z,94509.00
2023-06-10T06:41:00.458Z,94511.00
2023-06-10T06:42:00.408Z,94507.00
2023-06-10T06:43:00.397Z,94509.00
2023-06-10T06:44:00.481Z,94509.00
2023-06-10T06:45:00.427Z,94507.00
2023-06-10T06:46:00.401Z,94507.00
2023-06-10T06:47:00.482Z,94509.00
2023-06-10T06:48:00.440Z,94509.00
2023-06-10T06:49:00.431Z,94505.00
2023-06-10T06:50:00.408Z,94509.00
2023-06-10T06:51:00.356Z,94507.00
2023-06-10T06:52:00.373Z,94509.00
2023-06-10T06:53:00.388Z,94507.00
2023-06-10T06:54:00.372Z,94505.00
2023-06-10T06:55:00.330Z,94505.00
2023-06-10T06:56:00.343Z,94505.00
2023-06-10T06:57:00.331Z,94503.00
2023-06-10T06:58:00.316Z,94503.00
2023-06-10T06:59:00.320Z,94503.00
2023-06-10T07:00:00.296Z,94501.00
2023-06-10T07:01:00.342Z,94501.00
2023-06-10T07:02:00.289Z,94499.00
2023-06-10T07:03:00.387Z,94503.00
2023-06-10T07:04:00.305Z,94503.00
2023-06-10T07:05:00.362Z,94503.00
2023-06-10T07:06:00.243Z,94503.00
2023-06-10T07:07:00.315Z,94499.00
2023-06-10T07:08:00.271Z,94499.00
2023-06-10T07:09:00.266Z,94497.00
2023-06-10T07:10:00.308Z,94497.00
2023-06-10T07:11:00.237Z,94495.00
2023-06-10T07:12:00.237Z,94495.00
2023-06-10T07:13:00.253Z,94495.00
2023-06-10T07:14:00.221Z,94499.00
2023-06-10T07:15:00.206Z,94491.00
2023-06-10T07:16:00.197Z,94495.00
2023-06-10T07:17:00.354Z,94495.00
2023-06-10T07:18:00.272Z,94493.00
2023-06-10T07:19:00.185Z,94491.00
2023-06-10T07:20:00.213Z,94491.00
2023-06-10T07:21:00.163Z,94491.00
2023-06-10T07:22:00.200Z,94489.00
2023-06-10T07:23:00.172Z,94491.00
2023-06-10T07:24:00.232Z,94489.00
2023-06-10T07:25:00.242Z,94487.00
2023-06-10T07:26:00.232Z,94487.00
2023-06-10T07:27:00.231Z,94485.00
2023-06-10T07:28:00.273Z,94485.00
2023-06-10T07:29:00.259Z,94483.00
2023-06-10T07:30:00.301Z,94485.00
2023-06-10T07:31:00.398Z,94483.00
2023-06-10T07:32:00.312Z,94483.00
2023-06-10T07:33:00.360Z,94483.00
2023-06-10T07:34:00.382Z,94483.00
2023-06-10T07:35:00.399Z,94483.00
2023-06-10T07:36:00.430Z,94482.00
2023-06-10T07:37:00.444Z,94478.00
2023-06-10T07:38:00.437Z,94482.00
2023-06-10T07:39:00.471Z,94482.00
2023-06-10T07:40:00.491Z,94482.00
2023-06-10T07:41:00.482Z,94482.00
2023-06-10T07:42:00.520Z,94480.00
2023-06-10T07:43:00.569Z,94478.00
2023-06-10T07:44:00.520Z,94478.00
2023-06-10T07:45:00.543Z,94476.00
2023-06-10T07:46:00.722Z,94474.00
2023-06-10T07:47:00.647Z,94472.00
2023-06-10T07:48:00.673Z,94474.00
2023-06-10T07:49:00.609Z,94474.00
2023-06-10T07:50:00.679Z,94474.00
2023-06-10T07:51:00.665Z,94472.00
2023-06-10T07:52:00.747Z,94470.00
2023-06-10T07:53:00.781Z,94470.00
2023-06-10T07:54:00.714Z,94470.00
2023-06-10T07:55:00.745Z,94472.00
2023-06-10T07:56:00.713Z,94472.00
2023-06-10T07:57:00.757Z,94470.00
2023-06-10T07:58:00.769Z,94468.00
2023-06-10T07:59:00.785Z,94468.00
2023-06-10T08:00:00.765Z,94468.00
2023-06-10T08:01:00.772Z,94466.00
2023-06-10T08:02:00.794Z,94464.00
2023-06-10T08:03:00.924Z,94466.00
2023-06-10T08:04:00.995Z,94464.00
2023-06-10T08:05:00.876Z,94462.00
2023-06-10T08:06:00.832Z,94462.00
2023-06-10T08:07:00.862Z,94462.00
2023-06-10T08:08:03.819Z,94464.00
2023-06-10T08:09:00.844Z,94460.00
2023-06-10T08:10:00.843Z,94458.00
2023-06-10T08:11:00.853Z,94454.00
2023-06-10T08:12:00.815Z,94454.00
2023-06-10T08:13:00.885Z,94450.00
2023-06-10T08:14:00.812Z,94450.00
2023-06-10T08:15:00.795Z,94446.00
2023-06-10T08:16:00.833Z,94452.00
2023-06-10T08:17:01.013Z,94448.00
2023-06-10T08:18:00.823Z,94446.00
2023-06-10T08:19:00.797Z,94446.00
2023-06-10T08:20:00.779Z,94442.00
2023-06-10T08:21:00.797Z,94442.00
2023-06-10T08:22:00.755Z,94442.00
2023-06-10T08:23:00.718Z,94444.00
2023-06-10T08:24:00.783Z,94444.00
2023-06-10T08:25:00.737Z,94442.00
2023-06-10T08:26:00.703Z,94442.00
2023-06-10T08:27:00.707Z,94440.00
2023-06-10T08:28:00.716Z,94440.00
2023-06-10T08:29:00.736Z,94440.00
2023-06-10T08:30:00.717Z,94440.00
2023-06-10T08:31:00.709Z,94440.00
2023-06-10T08:32:00.723Z,94438.00
2023-06-10T08:33:00.836Z,94438.00
2023-06-10T08:34:00.654Z,94436.00
2023-06-10T08:35:00.656Z,94438.00
2023-06-10T08:36:00.664Z,94436.00
2023-06-10T08:37:00.649Z,94436.00
2023-06-10T08:38:00.615Z,94436.00
2023-06-10T08:39:00.655Z,94436.00
2023-06-10T08:40:00.662Z,94433.00
2023-06-10T08:41:00.640Z,94435.00
2023-06-10T08:42:00.625Z,94433.00
2023-06-10T08:43:00.613Z,94436.00
2023-06-10T08:44:00.593Z,94433.00
2023-06-10T08:45:03.179Z,94433.00
2023-06-10T08:46:00.592Z,94431.00
2023-06-10T08:47:00.588Z,94431.00
2023-06-10T08:48:00.735Z,94429.00
2023-06-10T08:49:00.663Z,94431.00
2023-06-10T08:50:00.685Z,94427.00
2023-06-10T08:51:00.550Z,94429.00
2023-06-10T08:52:00.529Z,94427.00
2023-06-10T08:53:00.548Z,94427.00
2023-06-10T08:54:00.550Z,94425.00
2023-06-10T08:55:00.555Z,94427.00
2023-06-10T08:56:00.527Z,94423.00
2023-06-10T08:57:00.540Z,94421.00
2023-06-10T08:58:00.516Z,94419.00
2023-06-10T08:59:00.491Z,94421.00
2023-06-10T09:00:00.516Z,94419.00
2023-06-10T09:01:00.473Z,94417.00
2023-06-10T09:02:00.534Z,94415.00
2023-06-10T09:03:04.393Z,94417.00
2023-06-10T09:04:00.540Z,94413.00
2023-06-10T09:05:00.475Z,94413.00
2023-06-10T09:06:00.478Z,94411.00
2023-06-10T09:07:00.431Z,94411.00
2023-06-10T09:08:00.493Z,94417.00
2023-06-10T09:09:03.536Z,94415.00
2023-06-10T09:10:00.430Z,94415.00
2023-06-10T09:11:00.437Z,94415.00
2023-06-10T09:12:00.408Z,94415.00
2023-06-10T09:13:00.436Z,94413.00
2023-06-10T09:14:00.396Z,94411.00
2023-06-10T09:15:03.041Z,94411.00
2023-06-10T09:16:00.389Z,94411.00
2023-06-10T09:17:00.385Z,94413.00
2023-06-10T09:18:00.402Z,94407.00
2023-06-10T09:19:00.383Z,94407.00
2023-06-10T09:20:00.364Z,94409.00
2023-06-10T09:21:00.336Z,94405.00
2023-06-10T09:22:00.359Z,94403.00
2023-06-10T09:23:00.320Z,94405.00
2023-06-10T09:24:00.399Z,94401.00
2023-06-10T09:25:00.342Z,94405.00
2023-06-10T09:26:00.335Z,94401.00
2023-06-10T09:27:00.294Z,94401.00
2023-06-10T09:28:00.315Z,94401.00
2023-06-10T09:29:00.303Z,94401.00
2023-06-10T09:30:00.309Z,94399.00
2023-06-10T09:31:00.292Z,94403.00
2023-06-10T09:32:00.298Z,94401.00
2023-06-10T09:33:00.404Z,94399.00
2023-06-10T09:34:00.288Z,94399.00
2023-06-10T09:35:00.263Z,94397.00
2023-06-10T09:36:00.275Z,94399.00
2023-06-10T09:37:00.253Z,94397.00
2023-06-10T09:38:00.257Z,94401.00
2023-06-10T09:39:00.248Z,94401.00
2023-06-10T09:40:00.200Z,94399.00
2023-06-10T09:41:00.226Z,94403.00
2023-06-10T09:42:00.263Z,94399.00
2023-06-10T09:43:00.258Z,94401.00
2023-06-10T09:44:00.193Z,94399.00
2023-06-10T09:45:00.233Z,94401.00
2023-06-10T09:46:00.246Z,94399.00
2023-06-10T09:47:00.202Z,94401.00
2023-06-10T09:48:00.320Z,94403.00
2023-06-10T09:49:00.212Z,94399.00
2023-06-10T09:50:00.212Z,94397.00
2023-06-10T09:51:00.255Z,94399.00
2023-06-10T09:52:00.250Z,94397.00
2023-06-10T09:53:00.190Z,94395.00
2023-06-10T09:54:00.185Z,94393.00
2023-06-10T09:55:00.261Z,94389.00
2023-06-10T09:56:00.226Z,94391.00
2023-06-10T09:57:00.313Z,94393.00
2023-06-10T09:58:00.329Z,94389.00
2023-06-10T09:59:00.367Z,94391.00
2023-06-10T10:00:00.400Z,94391.00
2023-06-10T10:01:00.448Z,94387.00
2023-06-10T10:02:00.445Z,94389.00
2023-06-10T10:03:00.520Z,94387.00
2023-06-10T10:04:00.512Z,94387.00
2023-06-10T10:05:00.652Z,94387.00
2023-06-10T10:06:00.733Z,94385.00
2023-06-10T10:07:00.687Z,94383.00
2023-06-10T10:08:00.594Z,94381.00
2023-06-10T10:09:00.701Z,94381.00
2023-06-10T10:10:00.755Z,94381.00
2023-06-10T10:11:00.683Z,94380.00
2023-06-10T10:12:00.829Z,94381.00
2023-06-10T10:13:00.728Z,94381.00
2023-06-10T10:14:00.781Z,94378.00
2023-06-10T10:15:00.803Z,94380.00
2023-06-10T10:16:00.787Z,94378.00
2023-06-10T10:17:00.860Z,94378.00
2023-06-10T10:18:00.968Z,94376.00
2023-06-10T10:19:00.807Z,94366.00
2023-06-10T10:20:00.848Z,94362.00
2023-06-10T10:21:00.835Z,94364.00
2023-06-10T10:22:00.873Z,94362.00
2023-06-10T10:23:00.855Z,94360.00
2023-06-10T10:24:00.932Z,94358.00
2023-06-10T10:25:00.937Z,94356.00
2023-06-10T10:26:00.953Z,94358.00
2023-06-10T10:27:00.957Z,94358.00
2023-06-10T10:28:01.056Z,94354.00
2023-06-10T10:29:01.001Z,94356.00
2023-06-10T10:30:01.022Z,94356.00
2023-06-10T10:31:00.985Z,94358.00
2023-06-10T10:32:01.060Z,94356.00
2023-06-10T10:33:01.092Z,94356.00
2023-06-10T10:34:01.113Z,94354.00
2023-06-10T10:35:01.056Z,94356.00
2023-06-10T10:36:01.065Z,94354.00
2023-06-10T10:37:01.054Z,94358.00
2023-06-10T10:38:01.078Z,94356.00
2023-06-10T10:39:01.091Z,94358.00
2023-06-10T10:40:01.105Z,94360.00
2023-06-10T10:41:01.147Z,94356.00
2023-06-10T10:42:01.150Z,94356.00
2023-06-10T10:43:01.176Z,94356.00
2023-06-10T10:44:01.263Z,94354.00
2023-06-10T10:45:01.189Z,94352.00
2023-06-10T10:46:01.219Z,94352.00
2023-06-10T10:47:01.252Z,94350.00
2023-06-10T10:48:01.312Z,94352.00
2023-06-10T10:49:01.254Z,94352.00
2023-06-10T10:50:01.448Z,94348.00
2023-06-10T10:51:01.263Z,94350.00
2023-06-10T10:52:01.301Z,94352.00
2023-06-10T10:53:01.345Z,94350.00
2023-06-10T10:54:01.304Z,94350.00
2023-06-10T10:55:01.358Z,94350.00
2023-06-10T10:56:01.367Z,94348.00
2023-06-10T10:57:01.398Z,94350.00
2023-06-10T10:58:01.411Z,94350.00
2023-06-10T10:59:01.392Z,94348.00
2023-06-10T11:00:01.664Z,94346.00
2023-06-10T11:01:01.489Z,94346.00
2023-06-10T11:02:01.444Z,94344.00
2023-06-10T11:03:03.601Z,94342.00
2023-06-10T11:04:01.547Z,94340.00
2023-06-10T11:05:01.576Z,94342.00
2023-06-10T11:06:01.428Z,94338.00
2023-06-10T11:07:01.386Z,94336.00
2023-06-10T11:08:01.382Z,94338.00
2023-06-10T11:09:04.547Z,94336.00
2023-06-10T11:10:01.425Z,94336.00
2023-06-10T11:11:01.348Z,94333.00
2023-06-10T11:12:01.366Z,94335.00
2023-06-10T11:13:01.325Z,94335.00
2023-06-10T11:14:01.374Z,94333.00
2023-06-10T11:15:01.328Z,94333.00
2023-06-10T11:16:01.325Z,94333.00
2023-06-10T11:17:01.413Z,94331.00
2023-06-10T11:18:01.347Z,94335.00
2023-06-10T11:19:01.354Z,94331.00
2023-06-10T11:20:01.377Z,94335.00
2023-06-10T11:21:01.378Z,94333.00
2023-06-10T11:22:01.379Z,94335.00
2023-06-10T11:23:01.297Z,94333.00
2023-06-10T11:24:01.369Z,94333.00
2023-06-10T11:25:01.285Z,94333.00
2023-06-10T11:26:01.373Z,94333.00
2023-06-10T11:27:01.266Z,94329.00
2023-06-10T11:28:01.303Z,94333.00
2023-06-10T11:29:01.320Z,94331.00
2023-06-10T11:30:01.329Z,94333.00
2023-06-10T11:31:01.270Z,94333.00
2023-06-10T11:32:01.324Z,94331.00
2023-06-10T11:33:01.839Z,94327.00
2023-06-10T11:34:01.233Z,94327.00
2023-06-10T11:35:01.220Z,94327.00
2023-06-10T11:36:01.220Z,94323.00
2023-06-10T11:37:01.229Z,94323.00
2023-06-10T11:38:01.266Z,94321.00
2023-06-10T11:39:01.315Z,94321.00
2023-06-10T11:40:01.406Z,94317.00
2023-06-10T11:41:01.485Z,94319.00
2023-06-10T11:42:01.502Z,94317.00
2023-06-10T11:43:01.543Z,94317.00
2023-06-10T11:44:01.643Z,94321.00
2023-06-10T11:45:01.694Z,94319.00